createdAt,value
2022-11-13T00:00:55.985Z,1.50
2022-11-13T00:03:25.776Z,1.80
2022-11-13T00:06:00.358Z,1.67
2022-11-13T00:08:28.844Z,1.60
2022-11-13T00:11:01.932Z,1.50
2022-11-13T00:13:30.648Z,1.23
2022-11-13T00:15:59.671Z,1.70
2022-11-13T00:18:29.980Z,1.40
2022-11-13T00:20:58.699Z,1.67
2022-11-13T00:23:26.877Z,1.63
2022-11-13T00:25:55.010Z,1.70
2022-11-13T00:28:23.214Z,1.67
2022-11-13T00:30:51.368Z,1.60
2022-11-13T00:33:37.981Z,1.80
2022-11-13T00:36:11.028Z,1.83
2022-11-13T00:38:39.186Z,2.00
2022-11-13T00:41:07.484Z,1.90
2022-11-13T00:43:35.670Z,1.70
2022-11-13T00:46:03.835Z,1.93
2022-11-13T00:48:32.011Z,1.60
2022-11-13T00:51:00.320Z,1.87
2022-11-13T00:53:29.823Z,1.73
2022-11-13T00:55:57.954Z,1.90
2022-11-13T00:58:26.324Z,1.60
2022-11-13T01:00:54.954Z,1.90
2022-11-13T01:03:23.226Z,1.83
2022-11-13T01:05:51.375Z,1.80
2022-11-13T01:08:19.516Z,1.80
2022-11-13T01:10:53.571Z,1.60
2022-11-13T01:13:22.170Z,1.83
2022-11-13T01:15:50.332Z,1.80
2022-11-13T01:18:18.488Z,1.73
2022-11-13T01:20:46.643Z,1.90
2022-11-13T01:23:14.878Z,1.90
2022-11-13T01:25:43.049Z,1.73
2022-11-13T01:28:12.538Z,1.83
2022-11-13T01:30:40.775Z,1.77
2022-11-13T01:33:08.919Z,1.70
2022-11-13T01:35:37.080Z,2.00
2022-11-13T01:38:05.218Z,1.70
2022-11-13T01:40:33.403Z,1.80
2022-11-13T01:43:13.398Z,1.97
2022-11-13T01:46:07.248Z,1.70
2022-11-13T01:48:37.562Z,1.70
2022-11-13T01:51:09.551Z,1.47
2022-11-13T01:53:37.784Z,1.57
2022-11-13T01:56:06.149Z,1.63
2022-11-13T01:58:34.346Z,1.70
2022-11-13T02:01:03.874Z,1.60
2022-11-13T02:03:32.047Z,1.70
2022-11-13T02:06:00.246Z,1.50
2022-11-13T02:08:28.666Z,1.77
2022-11-13T02:10:57.479Z,1.80
2022-11-13T02:13:26.378Z,1.43
2022-11-13T02:15:55.203Z,1.30
2022-11-13T02:18:25.856Z,1.60
2022-11-13T02:20:57.985Z,1.70
2022-11-13T02:23:30.163Z,1.47
2022-11-13T02:26:00.020Z,1.60
2022-11-13T02:28:28.452Z,1.63
2022-11-13T02:30:57.025Z,1.60
2022-11-13T02:33:26.232Z,1.60
2022-11-13T02:35:54.759Z,1.60
2022-11-13T02:38:22.917Z,1.60
2022-11-13T02:40:51.065Z,1.40
2022-11-13T02:43:20.568Z,1.70
2022-11-13T02:45:48.724Z,1.40
2022-11-13T02:48:16.922Z,1.40
2022-11-13T02:50:45.128Z,1.60
2022-11-13T02:53:13.293Z,1.80
2022-11-13T02:55:41.518Z,1.40
2022-11-13T02:58:09.667Z,1.80
2022-11-13T03:00:39.177Z,1.47
2022-11-13T03:03:07.444Z,1.37
2022-11-13T03:05:35.582Z,1.40
2022-11-13T03:08:03.746Z,1.47
2022-11-13T03:10:31.911Z,1.70
2022-11-13T03:13:00.443Z,1.60
2022-11-13T03:15:28.644Z,1.70
2022-11-13T03:17:58.163Z,1.77
2022-11-13T03:20:26.312Z,1.80
2022-11-13T03:22:54.458Z,1.70
2022-11-13T03:25:22.608Z,1.70
2022-11-13T03:27:50.767Z,1.80
2022-11-13T03:30:19.075Z,1.87
2022-11-13T03:32:47.211Z,2.27
2022-11-13T03:35:16.762Z,1.90
2022-11-13T03:37:44.919Z,1.90
2022-11-13T03:40:13.516Z,1.80
2022-11-13T03:42:41.694Z,1.90
2022-11-13T03:45:10.064Z,1.90
2022-11-13T03:47:38.219Z,2.10
2022-11-13T03:50:06.742Z,2.23
2022-11-13T03:52:36.271Z,2.30
2022-11-13T03:55:04.462Z,2.40
2022-11-13T03:57:33.036Z,2.13
2022-11-13T04:00:01.216Z,2.20
2022-11-13T04:02:29.368Z,2.30
2022-11-13T04:04:57.514Z,2.37
2022-11-13T04:07:25.664Z,2.23
2022-11-13T04:09:55.191Z,2.20
2022-11-13T04:12:23.359Z,2.33
2022-11-13T04:14:51.493Z,2.13
2022-11-13T04:17:19.652Z,2.07
2022-11-13T04:19:47.795Z,2.10
2022-11-13T04:22:15.955Z,2.70
2022-11-13T04:24:44.096Z,2.10
2022-11-13T04:27:13.628Z,2.07
2022-11-13T04:29:41.793Z,2.57
2022-11-13T04:32:09.955Z,2.20
2022-11-13T04:34:38.090Z,2.03
2022-11-13T04:37:06.238Z,2.33
2022-11-13T04:39:34.367Z,2.13
2022-11-13T04:42:20.087Z,2.07
2022-11-13T04:44:49.593Z,2.00
2022-11-13T04:47:17.746Z,2.30
2022-11-13T04:49:45.895Z,1.97
2022-11-13T04:52:14.085Z,1.80
2022-11-13T04:54:42.229Z,1.83
2022-11-13T04:57:10.422Z,1.77
2022-11-13T04:59:38.575Z,1.77
2022-11-13T05:02:08.129Z,1.30
2022-11-13T05:04:36.334Z,1.67
2022-11-13T05:07:04.594Z,1.60
2022-11-13T05:09:32.979Z,1.50
2022-11-13T05:12:01.153Z,1.57
2022-11-13T05:14:29.314Z,1.80
2022-11-13T05:16:57.521Z,1.33
2022-11-13T05:19:27.035Z,1.63
2022-11-13T05:21:55.197Z,1.70
2022-11-13T05:24:23.337Z,1.60
2022-11-13T05:26:51.610Z,1.83
2022-11-13T05:29:19.812Z,1.50
2022-11-13T05:31:48.243Z,1.50
2022-11-13T05:34:16.639Z,1.73
2022-11-13T05:36:46.138Z,1.83
2022-11-13T05:39:14.299Z,1.67
2022-11-13T05:41:42.576Z,1.90
2022-11-13T05:44:11.092Z,2.00
2022-11-13T05:46:39.372Z,1.80
2022-11-13T05:49:07.544Z,1.50
2022-11-13T05:51:36.094Z,1.63
2022-11-13T05:54:06.125Z,1.50
2022-11-13T05:56:35.075Z,1.77
2022-11-13T05:59:03.598Z,1.30
2022-11-13T06:01:33.108Z,1.80
2022-11-13T06:04:01.879Z,1.63
2022-11-13T06:06:31.108Z,1.40
2022-11-13T06:09:00.364Z,1.53
2022-11-13T06:11:30.782Z,1.43
2022-11-13T06:13:59.613Z,1.43
2022-11-13T06:16:28.594Z,1.40
2022-11-13T06:18:57.515Z,1.37
2022-11-13T06:21:26.854Z,1.20
2022-11-13T06:23:55.033Z,1.60
2022-11-13T06:26:24.369Z,1.30
2022-11-13T06:28:54.131Z,1.20
2022-11-13T06:31:25.130Z,1.40
2022-11-13T06:33:53.438Z,1.63
2022-11-13T06:36:23.022Z,1.60
2022-11-13T06:38:51.291Z,1.30
2022-11-13T06:41:20.373Z,1.80
2022-11-13T06:43:48.678Z,1.70
2022-11-13T06:46:18.941Z,1.67
2022-11-13T06:48:47.387Z,1.87
2022-11-13T06:51:16.712Z,1.33
2022-11-13T06:53:44.913Z,1.50
2022-11-13T06:56:13.297Z,1.67
2022-11-13T06:58:41.839Z,1.50
2022-11-13T07:01:10.719Z,1.57
2022-11-13T07:03:40.395Z,1.37
2022-11-13T07:06:09.567Z,1.87
2022-11-13T07:08:37.739Z,1.37
2022-11-13T07:11:07.661Z,1.80
2022-11-13T07:13:35.813Z,1.80
2022-11-13T07:16:15.825Z,1.60
2022-11-13T07:18:51.647Z,1.60
2022-11-13T07:21:20.251Z,1.50
2022-11-13T07:23:49.223Z,1.40
2022-11-13T07:26:17.455Z,1.40
2022-11-13T07:28:46.064Z,1.60
2022-11-13T07:31:15.303Z,1.60
2022-11-13T07:33:43.475Z,1.30
2022-11-13T07:36:13.175Z,1.80
2022-11-13T07:38:41.325Z,1.37
2022-11-13T07:41:09.565Z,1.40
2022-11-13T07:43:37.716Z,1.50
2022-11-13T07:46:05.968Z,1.30
2022-11-13T07:48:34.134Z,1.70
2022-11-13T07:51:02.896Z,1.63
2022-11-13T07:53:32.633Z,1.70
2022-11-13T07:56:02.669Z,1.50
2022-11-13T07:58:32.181Z,1.60
2022-11-13T08:01:04.092Z,1.40
2022-11-13T08:03:32.379Z,1.63
2022-11-13T08:06:05.029Z,1.30
2022-11-13T08:08:34.763Z,1.30
2022-11-13T08:11:05.232Z,1.20
2022-11-13T08:13:34.114Z,1.40
2022-11-13T08:16:02.341Z,1.20
2022-11-13T08:18:31.254Z,1.20
2022-11-13T08:21:02.159Z,1.30
2022-11-13T08:23:30.346Z,1.30
2022-11-13T08:25:59.981Z,1.40
2022-11-13T08:28:28.474Z,1.60
2022-11-13T08:30:56.846Z,1.83
2022-11-13T08:33:24.966Z,1.67
2022-11-13T08:35:56.234Z,1.70
2022-11-13T08:38:24.859Z,1.73
2022-11-13T08:40:53.132Z,2.00
2022-11-13T08:43:22.657Z,2.07
2022-11-13T08:45:50.798Z,1.90
2022-11-13T08:48:19.048Z,1.87
2022-11-13T08:50:47.231Z,2.10
2022-11-13T08:53:15.380Z,1.93
2022-11-13T08:55:43.546Z,1.70
2022-11-13T08:58:11.722Z,1.70
2022-11-13T09:00:41.256Z,2.03
2022-11-13T09:03:11.274Z,1.77
2022-11-13T09:05:39.424Z,2.10
2022-11-13T09:08:07.982Z,2.40
2022-11-13T09:10:36.129Z,2.30
2022-11-13T09:13:04.970Z,2.30
2022-11-13T09:15:34.128Z,2.40
2022-11-13T09:18:04.639Z,2.40
2022-11-13T09:20:33.264Z,2.20
2022-11-13T09:23:01.917Z,2.27
2022-11-13T09:25:35.808Z,2.57
2022-11-13T09:28:05.607Z,2.60
2022-11-13T09:30:33.795Z,2.20
2022-11-13T09:33:02.481Z,2.40
2022-11-13T09:35:35.268Z,2.30
2022-11-13T09:38:09.440Z,2.33
2022-11-13T09:40:41.400Z,2.50
2022-11-13T09:43:13.342Z,2.37
2022-11-13T09:45:42.578Z,2.50
2022-11-13T09:48:17.238Z,2.67
2022-11-13T09:50:47.256Z,2.60
2022-11-13T09:53:16.572Z,2.50
2022-11-13T09:55:50.477Z,2.80
2022-11-13T09:58:22.783Z,2.40
2022-11-13T10:00:51.651Z,2.67
2022-11-13T10:03:59.897Z,2.33
2022-11-13T10:06:25.269Z,2.00
2022-11-13T10:08:57.987Z,2.53
2022-11-13T10:11:39.441Z,2.47
2022-11-13T10:14:19.345Z,2.20
2022-11-13T10:16:50.907Z,2.60
2022-11-13T10:19:21.952Z,2.50
2022-11-13T10:22:07.677Z,2.70
2022-11-13T10:24:43.693Z,2.77
2022-11-13T10:27:12.881Z,2.63
2022-11-13T10:29:44.765Z,3.23
2022-11-13T10:32:18.286Z,3.07
2022-11-13T10:34:49.853Z,2.63
2022-11-13T10:37:30.640Z,3.40
2022-11-13T10:39:58.783Z,3.47
2022-11-13T10:42:29.511Z,2.70
2022-11-13T10:44:58.617Z,3.27
2022-11-13T10:47:56.907Z,2.73
2022-11-13T10:50:21.233Z,2.80
2022-11-13T10:52:51.658Z,3.30
2022-11-13T10:55:23.307Z,2.97
2022-11-13T10:58:01.117Z,2.90
2022-11-13T11:00:33.392Z,2.70
2022-11-13T11:03:01.602Z,2.63
2022-11-13T11:05:30.252Z,2.80
2022-11-13T11:07:59.998Z,2.67
2022-11-13T11:10:33.418Z,2.60
2022-11-13T11:13:04.691Z,2.53
2022-11-13T11:15:41.384Z,2.90
2022-11-13T11:18:19.571Z,2.87
2022-11-13T11:20:50.761Z,3.33
2022-11-13T11:23:24.847Z,3.20
2022-11-13T11:25:56.212Z,3.30
2022-11-13T11:28:29.289Z,3.20
2022-11-13T11:31:01.241Z,3.43
2022-11-13T11:33:33.051Z,2.90
2022-11-13T11:36:03.782Z,2.80
2022-11-13T11:38:37.539Z,2.33
2022-11-13T11:41:15.979Z,2.77
2022-11-13T11:43:45.963Z,2.60
2022-11-13T11:46:14.683Z,3.20
2022-11-13T11:48:43.116Z,2.73
2022-11-13T11:51:17.692Z,2.50
2022-11-13T11:53:52.325Z,2.47
2022-11-13T11:56:24.182Z,2.97
2022-11-13T11:59:16.319Z,2.50
2022-11-13T12:01:52.769Z,2.70
2022-11-13T12:04:28.543Z,2.53
2022-11-13T12:07:03.636Z,3.30
2022-11-13T12:09:35.080Z,2.70
2022-11-13T12:12:09.087Z,2.93
2022-11-13T12:14:43.482Z,2.70
2022-11-13T12:17:18.219Z,2.33
2022-11-13T12:19:51.663Z,3.00
2022-11-13T12:22:29.629Z,3.00
2022-11-13T12:25:09.419Z,2.70
2022-11-13T12:27:40.089Z,2.43
2022-11-13T12:30:15.360Z,2.97
2022-11-13T12:32:52.471Z,3.73
2022-11-13T12:35:21.510Z,3.47
2022-11-13T12:37:52.803Z,4.00
2022-11-13T12:40:27.583Z,4.60
2022-11-13T12:42:58.411Z,3.63
2022-11-13T12:45:29.883Z,3.37
2022-11-13T12:47:58.055Z,3.63
2022-11-13T12:50:32.183Z,3.97
2022-11-13T12:53:02.063Z,3.80
2022-11-13T12:55:32.217Z,3.43
2022-11-13T12:58:06.987Z,3.40
2022-11-13T13:00:36.262Z,3.40
2022-11-13T13:03:11.895Z,3.70
2022-11-13T13:05:55.083Z,3.13
2022-11-13T13:08:32.060Z,3.33
2022-11-13T13:11:07.414Z,3.30
2022-11-13T13:13:38.984Z,3.37
2022-11-13T13:16:08.703Z,2.70
2022-11-13T13:18:37.771Z,2.93
2022-11-13T13:21:08.255Z,2.63
2022-11-13T13:23:37.271Z,2.97
2022-11-13T13:26:08.413Z,2.80
2022-11-13T13:28:40.346Z,2.63
2022-11-13T13:31:16.781Z,2.50
2022-11-13T13:33:51.199Z,2.50
2022-11-13T13:36:24.426Z,2.30
2022-11-13T13:38:57.492Z,2.27
2022-11-13T13:41:34.089Z,2.27
2022-11-13T13:44:11.267Z,2.13
2022-11-13T13:46:39.668Z,2.03
2022-11-13T13:49:10.993Z,2.20
2022-11-13T13:51:41.806Z,2.70
2022-11-13T13:54:11.252Z,2.40
2022-11-13T13:56:43.539Z,2.73
2022-11-13T13:59:16.361Z,2.20
2022-11-13T14:01:54.419Z,2.20
2022-11-13T14:04:23.240Z,2.37
2022-11-13T14:06:52.142Z,2.30
2022-11-13T14:09:21.520Z,2.27
2022-11-13T14:11:58.040Z,2.27
2022-11-13T14:14:26.544Z,2.57
2022-11-13T14:16:55.693Z,2.40
2022-11-13T14:19:24.236Z,2.03
2022-11-13T14:21:54.145Z,2.00
2022-11-13T14:24:24.101Z,2.23
2022-11-13T14:26:54.529Z,2.00
2022-11-13T14:29:31.620Z,2.10
2022-11-13T14:32:04.316Z,2.07
2022-11-13T14:34:32.668Z,2.37
2022-11-13T14:37:08.340Z,2.10
2022-11-13T14:39:36.572Z,2.30
2022-11-13T14:42:06.339Z,2.00
2022-11-13T14:44:35.538Z,2.23
2022-11-13T14:47:04.981Z,2.30
2022-11-13T14:49:34.160Z,2.10
2022-11-13T14:52:02.663Z,1.80
2022-11-13T14:54:53.053Z,1.87
2022-11-13T14:57:21.823Z,2.17
2022-11-13T14:59:50.003Z,2.03
2022-11-13T15:02:20.126Z,2.17
2022-11-13T15:04:48.278Z,2.03
2022-11-13T15:07:34.340Z,2.00
2022-11-13T15:10:02.494Z,2.03
2022-11-13T15:12:31.987Z,2.00
2022-11-13T15:15:00.194Z,1.93
2022-11-13T15:17:28.379Z,2.00
2022-11-13T15:19:56.736Z,2.33
2022-11-13T15:22:28.035Z,2.40
2022-11-13T15:24:56.706Z,2.37
2022-11-13T15:27:24.862Z,2.27
2022-11-13T15:29:54.352Z,2.13
2022-11-13T15:32:23.047Z,2.20
2022-11-13T15:34:51.188Z,2.10
2022-11-13T15:37:19.332Z,2.03
2022-11-13T15:39:47.522Z,3.40
2022-11-13T15:42:16.542Z,2.70
2022-11-13T15:44:45.108Z,5.27
2022-11-13T15:47:28.723Z,11.17
2022-11-13T15:50:12.971Z,12.50
2022-11-13T15:52:42.778Z,9.93
2022-11-13T15:55:21.086Z,9.20
2022-11-13T15:57:49.407Z,8.63
2022-11-13T16:00:18.250Z,6.80
2022-11-13T16:02:50.289Z,6.83
2022-11-13T16:05:18.771Z,5.77
2022-11-13T16:07:46.907Z,3.80
2022-11-13T16:10:15.956Z,4.30
2022-11-13T16:12:45.722Z,4.33
2022-11-13T16:15:15.572Z,4.67
2022-11-13T16:17:44.850Z,3.63
2022-11-13T16:20:16.633Z,4.93
2022-11-13T16:22:45.125Z,4.17
2022-11-13T16:25:14.150Z,3.13
2022-11-13T16:27:42.411Z,3.30
2022-11-13T16:30:15.099Z,2.90
2022-11-13T16:32:43.298Z,3.13
2022-11-13T16:35:15.551Z,3.20
2022-11-13T16:37:44.015Z,2.73
2022-11-13T16:40:16.715Z,3.00
2022-11-13T16:42:45.017Z,3.07
2022-11-13T16:45:13.233Z,2.73
2022-11-13T16:47:41.580Z,3.40
2022-11-13T16:50:20.835Z,3.77
2022-11-13T16:52:49.055Z,3.93
2022-11-13T16:55:17.375Z,4.43
2022-11-13T16:57:45.517Z,4.50
2022-11-13T17:00:16.008Z,4.77
2022-11-13T17:02:44.298Z,3.77
2022-11-13T17:05:13.784Z,5.00
2022-11-13T17:07:43.527Z,3.77
2022-11-13T17:13:01.377Z,3.67
2022-11-13T17:15:29.608Z,3.20
2022-11-13T17:17:58.379Z,2.87
2022-11-13T17:20:26.814Z,3.17
2022-11-13T17:22:56.310Z,3.10
2022-11-13T17:25:26.713Z,3.90
2022-11-13T17:27:55.355Z,3.33
2022-11-13T17:30:23.618Z,3.47
2022-11-13T17:32:51.779Z,3.50
2022-11-13T17:35:19.943Z,3.10
2022-11-13T17:37:48.139Z,2.97
2022-11-13T17:40:18.002Z,3.23
2022-11-13T17:42:47.983Z,3.23
2022-11-13T17:45:16.498Z,3.80
2022-11-13T17:47:44.834Z,4.07
2022-11-13T17:50:13.059Z,4.33
2022-11-13T17:52:41.230Z,4.33
2022-11-13T17:55:11.897Z,3.87
2022-11-13T17:57:41.564Z,4.33
2022-11-13T18:00:10.429Z,3.90
2022-11-13T18:02:39.469Z,3.67
2022-11-13T18:05:09.734Z,4.03
2022-11-13T18:07:37.998Z,3.90
2022-11-13T18:10:06.553Z,4.47
2022-11-13T18:12:34.976Z,3.57
2022-11-13T18:15:04.507Z,4.10
2022-11-13T18:17:32.729Z,5.00
2022-11-13T18:20:02.283Z,5.07
2022-11-13T18:22:31.582Z,4.40
2022-11-13T18:25:01.408Z,4.33
2022-11-13T18:27:29.607Z,5.73
2022-11-13T18:29:57.788Z,8.00
2022-11-13T18:32:27.422Z,7.50
2022-11-13T18:34:55.562Z,6.47
2022-11-13T18:37:24.121Z,6.00
2022-11-13T18:39:52.432Z,5.10
2022-11-13T18:42:20.716Z,5.67
2022-11-13T18:44:48.854Z,4.60
2022-11-13T18:47:17.769Z,4.60
2022-11-13T18:49:47.482Z,4.10
2022-11-13T18:52:18.613Z,4.70
2022-11-13T18:54:46.776Z,4.47
2022-11-13T18:57:14.986Z,6.70
2022-11-13T18:59:43.209Z,6.23
2022-11-13T19:02:12.682Z,6.60
2022-11-13T19:04:40.937Z,5.97
2022-11-13T19:07:12.144Z,6.03
2022-11-13T19:09:44.966Z,5.07
2022-11-13T19:12:13.241Z,4.73
2022-11-13T19:14:41.403Z,5.10
2022-11-13T19:17:09.750Z,4.60
2022-11-13T19:19:37.962Z,3.83
2022-11-13T19:22:06.421Z,4.00
2022-11-13T19:24:36.271Z,3.83
2022-11-13T19:27:04.757Z,3.67
2022-11-13T19:29:33.019Z,3.40
2022-11-13T19:32:01.170Z,3.50
2022-11-13T19:34:29.496Z,3.27
2022-11-13T19:36:57.708Z,3.47
2022-11-13T19:39:25.946Z,3.13
2022-11-13T19:41:55.554Z,3.10
2022-11-13T19:44:23.741Z,3.17
2022-11-13T19:46:51.922Z,3.47
2022-11-13T19:49:20.141Z,3.23
2022-11-13T19:51:48.348Z,3.10
2022-11-13T19:54:16.894Z,3.30
2022-11-13T19:56:45.065Z,3.13
2022-11-13T19:59:14.630Z,3.43
2022-11-13T20:01:43.863Z,3.20
2022-11-13T20:04:13.731Z,3.33
2022-11-13T20:06:41.934Z,3.07
2022-11-13T20:09:10.696Z,3.40
2022-11-13T20:11:38.991Z,3.43
2022-11-13T20:14:07.299Z,2.83
2022-11-13T20:16:36.808Z,3.03
2022-11-13T20:19:05.065Z,3.40
2022-11-13T20:21:33.244Z,2.90
2022-11-13T20:24:01.578Z,8.97
2022-11-13T20:26:29.951Z,4.13
2022-11-13T20:28:58.343Z,5.20
2022-11-13T20:31:27.691Z,5.30
2022-11-13T20:33:58.179Z,4.77
2022-11-13T20:36:26.339Z,6.17
2022-11-13T20:38:55.139Z,4.63
2022-11-13T20:41:23.959Z,3.47
2022-11-13T20:43:52.422Z,3.57
2022-11-13T20:46:21.573Z,3.50
2022-11-13T20:48:50.036Z,3.30
2022-11-13T20:51:20.449Z,2.90
2022-11-13T20:53:48.769Z,3.50
2022-11-13T20:56:17.056Z,3.30
2022-11-13T20:58:45.230Z,3.87
2022-11-13T21:01:14.527Z,3.30
2022-11-13T21:03:43.817Z,3.00
2022-11-13T21:06:12.793Z,3.23
2022-11-13T21:08:42.378Z,3.33
2022-11-13T21:11:14.363Z,3.60
2022-11-13T21:13:42.522Z,3.40
2022-11-13T21:16:11.507Z,3.43
2022-11-13T21:18:39.760Z,3.00
2022-11-13T21:21:08.737Z,3.93
2022-11-13T21:23:37.007Z,3.73
2022-11-13T21:26:07.887Z,3.37
2022-11-13T21:28:36.892Z,2.97
2022-11-13T21:31:06.006Z,3.43
2022-11-13T21:33:37.439Z,3.47
2022-11-13T21:36:06.336Z,3.20
2022-11-13T21:38:34.677Z,4.20
2022-11-13T21:41:20.920Z,3.17
2022-11-13T21:43:50.570Z,2.77
2022-11-13T21:46:19.143Z,2.30
2022-11-13T21:48:47.316Z,2.30
2022-11-13T21:51:15.511Z,2.77
2022-11-13T21:53:43.822Z,2.70
2022-11-13T21:56:15.660Z,2.70
2022-11-13T21:58:44.172Z,2.73
2022-11-13T22:01:14.422Z,2.57
2022-11-13T22:03:43.052Z,2.37
2022-11-13T22:06:18.438Z,2.40
2022-11-13T22:08:47.265Z,2.70
2022-11-13T22:11:15.677Z,2.60
2022-11-13T22:13:43.842Z,2.20
2022-11-13T22:16:13.726Z,2.63
2022-11-13T22:18:41.924Z,2.47
2022-11-13T22:21:12.489Z,2.40
2022-11-13T22:23:40.851Z,2.80
2022-11-13T22:26:09.925Z,2.80
2022-11-13T22:28:38.866Z,2.87
2022-11-13T22:31:07.686Z,3.07
2022-11-13T22:33:37.858Z,2.90
2022-11-13T22:36:06.972Z,2.80
2022-11-13T22:38:35.148Z,2.93
2022-11-13T22:41:04.321Z,3.00
2022-11-13T22:43:36.418Z,3.07
2022-11-13T22:46:05.545Z,3.67
2022-11-13T22:48:33.949Z,2.73
2022-11-13T22:51:07.560Z,3.27
2022-11-13T22:53:35.723Z,3.17
2022-11-13T22:56:05.110Z,3.30
2022-11-13T22:58:33.438Z,2.83
2022-11-13T23:01:05.394Z,2.80
2022-11-13T23:03:33.627Z,2.97
2022-11-13T23:06:03.651Z,2.83
2022-11-13T23:08:38.156Z,2.63
2022-11-13T23:11:06.695Z,2.70
2022-11-13T23:13:35.159Z,2.73
2022-11-13T23:16:03.750Z,2.80
2022-11-13T23:18:32.678Z,2.80
2022-11-13T23:21:01.106Z,2.70
2022-11-13T23:23:29.246Z,2.70
2022-11-13T23:25:59.406Z,2.73
2022-11-13T23:28:28.129Z,2.60
2022-11-13T23:30:56.603Z,2.53
2022-11-13T23:33:24.984Z,2.60
2022-11-13T23:35:53.449Z,2.60
2022-11-13T23:38:21.627Z,1.93
2022-11-13T23:40:54.393Z,2.60
2022-11-13T23:43:36.451Z,2.47
2022-11-13T23:46:12.403Z,2.33
2022-11-13T23:48:40.586Z,2.40
2022-11-13T23:51:08.840Z,2.30
2022-11-13T23:53:36.984Z,2.70
2022-11-13T23:56:05.340Z,2.50
2022-11-13T23:58:35.148Z,2.37
